sensor_id;sensor_type;location;lat;lon;timestamp;temperature;humidity
5154;DHT22;2595;53.584;10.084;2023-02-28T00:00:47;4.90;99.90
5154;DHT22;2595;53.584;10.084;2023-02-28T00:03:12;4.80;99.90
5154;DHT22;2595;53.584;10.084;2023-02-28T00:05:38;4.70;99.90
5154;DHT22;2595;53.584;10.084;2023-02-28T00:08:04;4.70;99.90
5154;DHT22;2595;53.584;10.084;2023-02-28T00:10:31;4.80;99.90
5154;DHT22;2595;53.584;10.084;2023-02-28T00:13:00;4.70;99.90
5154;DHT22;2595;53.584;10.084;2023-02-28T00:15:27;4.60;99.90
5154;DHT22;2595;53.584;10.084;2023-02-28T00:17:53;4.60;99.90
5154;DHT22;2595;53.584;10.084;2023-02-28T00:20:19;4.60;99.90
5154;DHT22;2595;53.584;10.084;2023-02-28T00:22:47;4.50;99.90
5154;DHT22;2595;53.584;10.084;2023-02-28T00:25:16;4.50;99.90
5154;DHT22;2595;53.584;10.084;2023-02-28T00:27:42;4.50;99.90
5154;DHT22;2595;53.584;10.084;2023-02-28T00:30:12;4.40;99.90
5154;DHT22;2595;53.584;10.084;2023-02-28T00:32:38;4.40;99.90
5154;DHT22;2595;53.584;10.084;2023-02-28T00:35:05;4.50;99.90
5154;DHT22;2595;53.584;10.084;2023-02-28T00:37:31;4.40;99.90
5154;DHT22;2595;53.584;10.084;2023-02-28T00:39:56;4.40;99.90
5154;DHT22;2595;53.584;10.084;2023-02-28T00:42:23;4.40;99.90
5154;DHT22;2595;53.584;10.084;2023-02-28T00:44:49;4.40;99.90
5154;DHT22;2595;53.584;10.084;2023-02-28T00:47:14;4.40;99.90
5154;DHT22;2595;53.584;10.084;2023-02-28T00:49:40;4.40;99.90
5154;DHT22;2595;53.584;10.084;2023-02-28T00:52:06;4.40;99.90
5154;DHT22;2595;53.584;10.084;2023-02-28T00:54:31;4.40;99.90
5154;DHT22;2595;53.584;10.084;2023-02-28T00:56:58;4.40;99.90
5154;DHT22;2595;53.584;10.084;2023-02-28T00:59:23;4.30;99.90
5154;DHT22;2595;53.584;10.084;2023-02-28T01:01:49;4.30;99.90
5154;DHT22;2595;53.584;10.084;2023-02-28T01:04:15;4.30;99.90
5154;DHT22;2595;53.584;10.084;2023-02-28T01:06:41;4.30;99.90
5154;DHT22;2595;53.584;10.084;2023-02-28T01:09:07;4.20;99.90
5154;DHT22;2595;53.584;10.084;2023-02-28T01:11:33;4.30;99.90
5154;DHT22;2595;53.584;10.084;2023-02-28T01:13:59;4.20;99.90
5154;DHT22;2595;53.584;10.084;2023-02-28T01:16:25;4.20;99.90
5154;DHT22;2595;53.584;10.084;2023-02-28T01:18:51;4.10;99.90
5154;DHT22;2595;53.584;10.084;2023-02-28T01:21:19;4.10;99.90
5154;DHT22;2595;53.584;10.084;2023-02-28T01:23:45;4.10;99.90
5154;DHT22;2595;53.584;10.084;2023-02-28T01:26:14;4.00;99.90
5154;DHT22;2595;53.584;10.084;2023-02-28T01:28:40;4.10;99.90
5154;DHT22;2595;53.584;10.084;2023-02-28T01:31:06;4.10;99.90
5154;DHT22;2595;53.584;10.084;2023-02-28T01:33:32;4.00;99.90
5154;DHT22;2595;53.584;10.084;2023-02-28T01:36:20;4.00;99.90
5154;DHT22;2595;53.584;10.084;2023-02-28T01:38:46;4.00;99.90
5154;DHT22;2595;53.584;10.084;2023-02-28T01:41:32;4.10;99.90
5154;DHT22;2595;53.584;10.084;2023-02-28T01:46:29;3.90;99.90
5154;DHT22;2595;53.584;10.084;2023-02-28T01:49:02;3.90;99.90
5154;DHT22;2595;53.584;10.084;2023-02-28T01:51:43;3.90;99.90
5154;DHT22;2595;53.584;10.084;2023-02-28T01:56:55;4.00;99.90
5154;DHT22;2595;53.584;10.084;2023-02-28T01:59:33;4.00;99.90
5154;DHT22;2595;53.584;10.084;2023-02-28T02:02:01;4.10;99.90
5154;DHT22;2595;53.584;10.084;2023-02-28T02:04:33;3.90;99.90
5154;DHT22;2595;53.584;10.084;2023-02-28T02:06:59;4.00;99.90
5154;DHT22;2595;53.584;10.084;2023-02-28T02:09:25;4.00;99.90
5154;DHT22;2595;53.584;10.084;2023-02-28T02:11:51;4.00;99.90
5154;DHT22;2595;53.584;10.084;2023-02-28T02:17:39;4.00;99.90
5154;DHT22;2595;53.584;10.084;2023-02-28T02:23:02;4.00;99.90
5154;DHT22;2595;53.584;10.084;2023-02-28T02:25:59;3.80;99.90
5154;DHT22;2595;53.584;10.084;2023-02-28T02:31:55;3.90;99.90
5154;DHT22;2595;53.584;10.084;2023-02-28T02:34:46;3.90;99.90
5154;DHT22;2595;53.584;10.084;2023-02-28T02:39:54;3.80;99.90
5154;DHT22;2595;53.584;10.084;2023-02-28T02:45:05;3.60;99.90
5154;DHT22;2595;53.584;10.084;2023-02-28T02:47:32;3.50;99.90
5154;DHT22;2595;53.584;10.084;2023-02-28T02:50:02;3.50;99.90
5154;DHT22;2595;53.584;10.084;2023-02-28T02:52:39;3.50;99.90
5154;DHT22;2595;53.584;10.084;2023-02-28T02:55:07;3.50;99.90
5154;DHT22;2595;53.584;10.084;2023-02-28T02:57:49;3.50;99.90
5154;DHT22;2595;53.584;10.084;2023-02-28T03:00:20;3.50;99.90
5154;DHT22;2595;53.584;10.084;2023-02-28T03:02:49;3.50;99.90
5154;DHT22;2595;53.584;10.084;2023-02-28T03:05:25;3.40;99.90
5154;DHT22;2595;53.584;10.084;2023-02-28T03:07:51;3.40;99.90
5154;DHT22;2595;53.584;10.084;2023-02-28T03:10:50;3.20;99.90
5154;DHT22;2595;53.584;10.084;2023-02-28T03:27:02;3.10;99.90
5154;DHT22;2595;53.584;10.084;2023-02-28T03:29:37;3.10;99.90
5154;DHT22;2595;53.584;10.084;2023-02-28T03:32:10;3.00;99.90
5154;DHT22;2595;53.584;10.084;2023-02-28T03:34:51;3.00;99.90
5154;DHT22;2595;53.584;10.084;2023-02-28T03:37:22;2.90;99.90
5154;DHT22;2595;53.584;10.084;2023-02-28T03:39:55;2.90;99.90
5154;DHT22;2595;53.584;10.084;2023-02-28T03:42:24;2.90;99.90
5154;DHT22;2595;53.584;10.084;2023-02-28T03:44:58;2.90;99.90
5154;DHT22;2595;53.584;10.084;2023-02-28T03:47:32;2.70;99.90
5154;DHT22;2595;53.584;10.084;2023-02-28T03:50:05;2.70;99.90
5154;DHT22;2595;53.584;10.084;2023-02-28T03:52:35;2.80;99.90
5154;DHT22;2595;53.584;10.084;2023-02-28T03:55:05;2.60;99.90
5154;DHT22;2595;53.584;10.084;2023-02-28T03:57:51;2.50;99.90
5154;DHT22;2595;53.584;10.084;2023-02-28T04:00:21;2.50;99.90
5154;DHT22;2595;53.584;10.084;2023-02-28T04:02:49;2.50;99.90
5154;DHT22;2595;53.584;10.084;2023-02-28T04:05:21;2.40;99.90
5154;DHT22;2595;53.584;10.084;2023-02-28T04:07:47;2.40;99.90
5154;DHT22;2595;53.584;10.084;2023-02-28T04:10:15;2.30;99.90
5154;DHT22;2595;53.584;10.084;2023-02-28T04:12:41;2.20;99.90
5154;DHT22;2595;53.584;10.084;2023-02-28T04:15:07;2.10;99.90
5154;DHT22;2595;53.584;10.084;2023-02-28T04:17:33;2.10;99.90
5154;DHT22;2595;53.584;10.084;2023-02-28T04:19:58;2.10;99.90
5154;DHT22;2595;53.584;10.084;2023-02-28T04:22:24;2.20;99.90
5154;DHT22;2595;53.584;10.084;2023-02-28T04:24:52;2.20;99.90
5154;DHT22;2595;53.584;10.084;2023-02-28T04:27:35;2.20;99.90
5154;DHT22;2595;53.584;10.084;2023-02-28T04:30:03;2.10;99.90
5154;DHT22;2595;53.584;10.084;2023-02-28T04:32:29;2.10;99.90
5154;DHT22;2595;53.584;10.084;2023-02-28T04:34:54;2.20;99.90
5154;DHT22;2595;53.584;10.084;2023-02-28T04:37:20;2.10;99.90
5154;DHT22;2595;53.584;10.084;2023-02-28T04:39:46;2.00;99.90
5154;DHT22;2595;53.584;10.084;2023-02-28T04:42:12;1.90;99.90
5154;DHT22;2595;53.584;10.084;2023-02-28T04:44:38;1.90;99.90
5154;DHT22;2595;53.584;10.084;2023-02-28T04:47:04;1.90;99.90
5154;DHT22;2595;53.584;10.084;2023-02-28T04:49:29;1.90;99.90
5154;DHT22;2595;53.584;10.084;2023-02-28T04:51:55;2.00;99.90
5154;DHT22;2595;53.584;10.084;2023-02-28T04:54:21;1.90;99.90
5154;DHT22;2595;53.584;10.084;2023-02-28T04:56:46;1.90;99.90
5154;DHT22;2595;53.584;10.084;2023-02-28T04:59:14;1.90;99.90
5154;DHT22;2595;53.584;10.084;2023-02-28T05:01:40;1.80;99.90
5154;DHT22;2595;53.584;10.084;2023-02-28T05:04:06;1.70;99.90
5154;DHT22;2595;53.584;10.084;2023-02-28T05:06:33;1.80;99.90
5154;DHT22;2595;53.584;10.084;2023-02-28T05:08:59;1.70;99.90
5154;DHT22;2595;53.584;10.084;2023-02-28T05:11:30;1.80;99.90
5154;DHT22;2595;53.584;10.084;2023-02-28T05:14:00;1.80;99.90
5154;DHT22;2595;53.584;10.084;2023-02-28T05:16:26;1.70;99.90
5154;DHT22;2595;53.584;10.084;2023-02-28T05:18:52;1.70;99.90
5154;DHT22;2595;53.584;10.084;2023-02-28T05:21:25;1.60;99.90
5154;DHT22;2595;53.584;10.084;2023-02-28T05:23:51;1.70;99.90
5154;DHT22;2595;53.584;10.084;2023-02-28T05:26:17;1.70;99.90
5154;DHT22;2595;53.584;10.084;2023-02-28T05:28:43;1.70;99.90
5154;DHT22;2595;53.584;10.084;2023-02-28T05:31:12;1.60;99.90
5154;DHT22;2595;53.584;10.084;2023-02-28T05:33:37;1.60;99.90
5154;DHT22;2595;53.584;10.084;2023-02-28T05:36:04;1.50;99.90
5154;DHT22;2595;53.584;10.084;2023-02-28T05:38:30;1.60;99.90
5154;DHT22;2595;53.584;10.084;2023-02-28T05:40:57;1.50;99.90
5154;DHT22;2595;53.584;10.084;2023-02-28T05:43:24;1.50;99.90
5154;DHT22;2595;53.584;10.084;2023-02-28T05:45:52;1.50;99.90
5154;DHT22;2595;53.584;10.084;2023-02-28T05:48:17;1.50;99.90
5154;DHT22;2595;53.584;10.084;2023-02-28T05:50:43;1.50;99.90
5154;DHT22;2595;53.584;10.084;2023-02-28T05:53:11;1.50;99.90
5154;DHT22;2595;53.584;10.084;2023-02-28T05:55:37;1.50;99.90
5154;DHT22;2595;53.584;10.084;2023-02-28T05:58:03;1.50;99.90
5154;DHT22;2595;53.584;10.084;2023-02-28T06:00:29;1.50;99.90
5154;DHT22;2595;53.584;10.084;2023-02-28T06:02:54;1.40;99.90
5154;DHT22;2595;53.584;10.084;2023-02-28T06:05:23;1.30;99.90
5154;DHT22;2595;53.584;10.084;2023-02-28T06:07:49;1.20;99.90
5154;DHT22;2595;53.584;10.084;2023-02-28T06:10:15;1.30;99.90
5154;DHT22;2595;53.584;10.084;2023-02-28T06:12:41;1.30;99.90
5154;DHT22;2595;53.584;10.084;2023-02-28T06:15:11;1.30;99.90
5154;DHT22;2595;53.584;10.084;2023-02-28T06:17:37;1.30;99.90
5154;DHT22;2595;53.584;10.084;2023-02-28T06:20:03;1.30;99.90
5154;DHT22;2595;53.584;10.084;2023-02-28T06:22:28;1.30;99.90
5154;DHT22;2595;53.584;10.084;2023-02-28T06:24:54;1.30;99.90
5154;DHT22;2595;53.584;10.084;2023-02-28T06:27:20;1.20;99.90
5154;DHT22;2595;53.584;10.084;2023-02-28T06:29:45;1.20;99.90
5154;DHT22;2595;53.584;10.084;2023-02-28T06:32:11;1.30;99.90
5154;DHT22;2595;53.584;10.084;2023-02-28T06:34:37;1.30;99.90
5154;DHT22;2595;53.584;10.084;2023-02-28T06:37:02;1.30;99.90
5154;DHT22;2595;53.584;10.084;2023-02-28T06:39:29;1.30;99.90
5154;DHT22;2595;53.584;10.084;2023-02-28T06:41:55;1.30;99.90
5154;DHT22;2595;53.584;10.084;2023-02-28T06:44:22;1.30;99.90
5154;DHT22;2595;53.584;10.084;2023-02-28T06:46:47;1.30;99.90
5154;DHT22;2595;53.584;10.084;2023-02-28T06:49:13;1.30;99.90
5154;DHT22;2595;53.584;10.084;2023-02-28T06:51:42;1.30;99.90
5154;DHT22;2595;53.584;10.084;2023-02-28T06:54:10;1.30;99.90
5154;DHT22;2595;53.584;10.084;2023-02-28T06:56:36;1.40;99.90
5154;DHT22;2595;53.584;10.084;2023-02-28T06:59:02;1.40;99.90
5154;DHT22;2595;53.584;10.084;2023-02-28T07:01:29;1.30;99.90
5154;DHT22;2595;53.584;10.084;2023-02-28T07:03:54;1.30;99.90
5154;DHT22;2595;53.584;10.084;2023-02-28T07:06:21;1.30;99.90
5154;DHT22;2595;53.584;10.084;2023-02-28T07:08:51;1.30;99.90
5154;DHT22;2595;53.584;10.084;2023-02-28T07:11:21;1.40;99.90
5154;DHT22;2595;53.584;10.084;2023-02-28T07:13:48;1.30;99.90
5154;DHT22;2595;53.584;10.084;2023-02-28T07:16:14;1.40;99.90
5154;DHT22;2595;53.584;10.084;2023-02-28T07:18:40;1.50;99.90
5154;DHT22;2595;53.584;10.084;2023-02-28T07:21:08;1.50;99.90
5154;DHT22;2595;53.584;10.084;2023-02-28T07:23:35;1.60;99.90
5154;DHT22;2595;53.584;10.084;2023-02-28T07:26:01;1.60;99.90
5154;DHT22;2595;53.584;10.084;2023-02-28T07:28:27;1.70;99.90
5154;DHT22;2595;53.584;10.084;2023-02-28T07:30:53;1.70;99.90
5154;DHT22;2595;53.584;10.084;2023-02-28T07:33:18;1.70;99.90
5154;DHT22;2595;53.584;10.084;2023-02-28T07:35:44;1.70;99.90
5154;DHT22;2595;53.584;10.084;2023-02-28T07:38:10;1.80;99.90
5154;DHT22;2595;53.584;10.084;2023-02-28T07:40:36;1.80;99.90
5154;DHT22;2595;53.584;10.084;2023-02-28T07:43:02;1.90;99.90
5154;DHT22;2595;53.584;10.084;2023-02-28T07:45:29;1.90;99.90
5154;DHT22;2595;53.584;10.084;2023-02-28T07:47:55;2.00;99.90
5154;DHT22;2595;53.584;10.084;2023-02-28T07:50:21;2.10;99.90
5154;DHT22;2595;53.584;10.084;2023-02-28T07:52:47;2.10;99.90
5154;DHT22;2595;53.584;10.084;2023-02-28T07:55:13;2.20;99.90
5154;DHT22;2595;53.584;10.084;2023-02-28T07:57:39;2.10;99.90
5154;DHT22;2595;53.584;10.084;2023-02-28T08:00:07;2.20;99.90
5154;DHT22;2595;53.584;10.084;2023-02-28T08:02:35;2.30;99.90
5154;DHT22;2595;53.584;10.084;2023-02-28T08:05:01;2.30;99.90
5154;DHT22;2595;53.584;10.084;2023-02-28T08:07:26;2.40;99.90
5154;DHT22;2595;53.584;10.084;2023-02-28T08:09:52;2.50;99.90
5154;DHT22;2595;53.584;10.084;2023-02-28T08:12:18;2.60;99.90
5154;DHT22;2595;53.584;10.084;2023-02-28T08:14:43;2.70;99.90
5154;DHT22;2595;53.584;10.084;2023-02-28T08:17:10;2.70;99.90
5154;DHT22;2595;53.584;10.084;2023-02-28T08:19:36;2.80;99.90
5154;DHT22;2595;53.584;10.084;2023-02-28T08:22:01;2.90;99.90
5154;DHT22;2595;53.584;10.084;2023-02-28T08:24:27;2.90;99.90
5154;DHT22;2595;53.584;10.084;2023-02-28T08:26:53;3.00;99.90
5154;DHT22;2595;53.584;10.084;2023-02-28T08:29:18;3.00;99.90
5154;DHT22;2595;53.584;10.084;2023-02-28T08:31:44;3.10;99.90
5154;DHT22;2595;53.584;10.084;2023-02-28T08:34:12;3.10;99.90
5154;DHT22;2595;53.584;10.084;2023-02-28T08:36:38;3.20;99.90
5154;DHT22;2595;53.584;10.084;2023-02-28T08:39:04;3.20;99.90
5154;DHT22;2595;53.584;10.084;2023-02-28T08:41:30;3.20;99.90
5154;DHT22;2595;53.584;10.084;2023-02-28T08:43:56;3.30;99.90
5154;DHT22;2595;53.584;10.084;2023-02-28T08:46:22;3.30;99.90
5154;DHT22;2595;53.584;10.084;2023-02-28T08:48:52;3.40;99.90
5154;DHT22;2595;53.584;10.084;2023-02-28T08:51:18;3.50;99.90
5154;DHT22;2595;53.584;10.084;2023-02-28T08:53:47;3.50;99.90
5154;DHT22;2595;53.584;10.084;2023-02-28T08:56:17;3.50;99.90
5154;DHT22;2595;53.584;10.084;2023-02-28T08:58:43;3.60;99.90
5154;DHT22;2595;53.584;10.084;2023-02-28T09:01:15;3.60;99.90
5154;DHT22;2595;53.584;10.084;2023-02-28T09:03:41;3.70;99.90
5154;DHT22;2595;53.584;10.084;2023-02-28T09:06:08;3.70;99.90
5154;DHT22;2595;53.584;10.084;2023-02-28T09:08:34;3.80;99.90
5154;DHT22;2595;53.584;10.084;2023-02-28T09:11:00;3.80;99.90
5154;DHT22;2595;53.584;10.084;2023-02-28T09:13:27;3.90;99.90
5154;DHT22;2595;53.584;10.084;2023-02-28T09:15:54;3.90;99.90
5154;DHT22;2595;53.584;10.084;2023-02-28T09:18:19;4.00;99.90
5154;DHT22;2595;53.584;10.084;2023-02-28T09:20:45;4.00;99.90
5154;DHT22;2595;53.584;10.084;2023-02-28T09:23:12;4.10;99.90
5154;DHT22;2595;53.584;10.084;2023-02-28T09:25:53;4.10;99.90
5154;DHT22;2595;53.584;10.084;2023-02-28T09:28:20;4.10;99.90
5154;DHT22;2595;53.584;10.084;2023-02-28T09:30:48;4.20;99.90
5154;DHT22;2595;53.584;10.084;2023-02-28T09:33:14;4.20;99.90
5154;DHT22;2595;53.584;10.084;2023-02-28T09:35:40;4.30;99.90
5154;DHT22;2595;53.584;10.084;2023-02-28T09:38:06;4.30;99.90
5154;DHT22;2595;53.584;10.084;2023-02-28T09:40:36;4.40;99.90
5154;DHT22;2595;53.584;10.084;2023-02-28T09:43:03;4.40;99.90
5154;DHT22;2595;53.584;10.084;2023-02-28T09:45:36;4.50;99.90
5154;DHT22;2595;53.584;10.084;2023-02-28T09:48:12;4.60;99.90
5154;DHT22;2595;53.584;10.084;2023-02-28T09:53:31;4.60;99.90
5154;DHT22;2595;53.584;10.084;2023-02-28T09:56:05;4.60;99.90
5154;DHT22;2595;53.584;10.084;2023-02-28T09:58:49;4.70;99.90
5154;DHT22;2595;53.584;10.084;2023-02-28T10:01:39;4.70;99.90
5154;DHT22;2595;53.584;10.084;2023-02-28T10:04:51;4.80;99.90
5154;DHT22;2595;53.584;10.084;2023-02-28T10:09:53;4.90;99.90
5154;DHT22;2595;53.584;10.084;2023-02-28T10:12:20;4.90;99.90
5154;DHT22;2595;53.584;10.084;2023-02-28T10:14:47;4.90;99.90
5154;DHT22;2595;53.584;10.084;2023-02-28T10:17:18;5.00;99.90
5154;DHT22;2595;53.584;10.084;2023-02-28T10:20:30;5.00;99.90
5154;DHT22;2595;53.584;10.084;2023-02-28T10:25:55;5.20;99.90
5154;DHT22;2595;53.584;10.084;2023-02-28T10:28:24;5.20;99.90
5154;DHT22;2595;53.584;10.084;2023-02-28T10:30:52;5.40;99.90
5154;DHT22;2595;53.584;10.084;2023-02-28T10:33:33;5.90;99.90
5154;DHT22;2595;53.584;10.084;2023-02-28T10:36:00;6.50;99.90
5154;DHT22;2595;53.584;10.084;2023-02-28T10:38:28;7.30;99.90
5154;DHT22;2595;53.584;10.084;2023-02-28T10:41:35;8.00;99.90
5154;DHT22;2595;53.584;10.084;2023-02-28T10:44:21;8.70;99.90
5154;DHT22;2595;53.584;10.084;2023-02-28T10:46:48;9.40;99.90
5154;DHT22;2595;53.584;10.084;2023-02-28T10:49:27;9.70;99.90
5154;DHT22;2595;53.584;10.084;2023-02-28T10:51:56;9.70;99.90
5154;DHT22;2595;53.584;10.084;2023-02-28T10:54:29;9.40;99.60
5154;DHT22;2595;53.584;10.084;2023-02-28T10:57:16;9.30;99.90
5154;DHT22;2595;53.584;10.084;2023-02-28T10:59:43;9.10;99.10
5154;DHT22;2595;53.584;10.084;2023-02-28T11:02:33;8.90;99.80
5154;DHT22;2595;53.584;10.084;2023-02-28T11:04:58;8.80;99.90
5154;DHT22;2595;53.584;10.084;2023-02-28T11:07:26;8.70;99.90
5154;DHT22;2595;53.584;10.084;2023-02-28T11:09:54;8.70;99.90
5154;DHT22;2595;53.584;10.084;2023-02-28T11:12:26;8.60;99.90
5154;DHT22;2595;53.584;10.084;2023-02-28T11:15:00;8.70;99.90
5154;DHT22;2595;53.584;10.084;2023-02-28T11:17:29;8.70;99.90
5154;DHT22;2595;53.584;10.084;2023-02-28T11:20:02;8.80;99.90
5154;DHT22;2595;53.584;10.084;2023-02-28T11:22:31;8.80;99.90
5154;DHT22;2595;53.584;10.084;2023-02-28T11:25:00;8.90;99.90
5154;DHT22;2595;53.584;10.084;2023-02-28T11:29:56;8.80;99.60
5154;DHT22;2595;53.584;10.084;2023-02-28T11:32:32;8.80;99.80
5154;DHT22;2595;53.584;10.084;2023-02-28T11:35:02;8.80;99.90
5154;DHT22;2595;53.584;10.084;2023-02-28T11:37:29;8.90;99.90
5154;DHT22;2595;53.584;10.084;2023-02-28T11:39:55;8.90;99.50
5154;DHT22;2595;53.584;10.084;2023-02-28T11:45:27;8.80;99.90
5154;DHT22;2595;53.584;10.084;2023-02-28T11:48:07;8.90;98.30
5154;DHT22;2595;53.584;10.084;2023-02-28T11:51:08;8.90;98.10
5154;DHT22;2595;53.584;10.084;2023-02-28T11:56:38;9.00;98.10
5154;DHT22;2595;53.584;10.084;2023-02-28T11:59:18;9.10;98.70
5154;DHT22;2595;53.584;10.084;2023-02-28T12:02:08;9.20;98.30
5154;DHT22;2595;53.584;10.084;2023-02-28T12:07:31;9.40;98.50
5154;DHT22;2595;53.584;10.084;2023-02-28T12:12:39;9.50;96.90
5154;DHT22;2595;53.584;10.084;2023-02-28T12:18:17;9.60;96.90
5154;DHT22;2595;53.584;10.084;2023-02-28T12:20:49;9.50;96.00
5154;DHT22;2595;53.584;10.084;2023-02-28T12:26:36;9.60;96.70
5154;DHT22;2595;53.584;10.084;2023-02-28T12:29:24;9.60;94.80
5154;DHT22;2595;53.584;10.084;2023-02-28T12:34:47;9.80;96.60
5154;DHT22;2595;53.584;10.084;2023-02-28T12:37:21;9.90;95.40
5154;DHT22;2595;53.584;10.084;2023-02-28T12:39:52;10.00;94.40
5154;DHT22;2595;53.584;10.084;2023-02-28T12:48:05;10.10;93.60
5154;DHT22;2595;53.584;10.084;2023-02-28T12:50:33;10.00;91.90
5154;DHT22;2595;53.584;10.084;2023-02-28T12:58:17;9.70;92.60
5154;DHT22;2595;53.584;10.084;2023-02-28T13:09:35;9.90;94.70
5154;DHT22;2595;53.584;10.084;2023-02-28T13:12:13;9.90;93.60
5154;DHT22;2595;53.584;10.084;2023-02-28T13:14:41;9.90;94.20
5154;DHT22;2595;53.584;10.084;2023-02-28T13:19:34;10.00;93.80
5154;DHT22;2595;53.584;10.084;2023-02-28T13:22:01;10.10;92.80
5154;DHT22;2595;53.584;10.084;2023-02-28T13:24:49;10.00;93.20
5154;DHT22;2595;53.584;10.084;2023-02-28T13:29:42;10.00;93.30
5154;DHT22;2595;53.584;10.084;2023-02-28T13:34:37;9.90;92.10
5154;DHT22;2595;53.584;10.084;2023-02-28T13:47:42;9.90;93.80
5154;DHT22;2595;53.584;10.084;2023-02-28T13:50:37;9.90;94.10
5154;DHT22;2595;53.584;10.084;2023-02-28T14:04:29;10.10;92.20
5154;DHT22;2595;53.584;10.084;2023-02-28T14:06:59;10.10;93.20
5154;DHT22;2595;53.584;10.084;2023-02-28T14:09:35;10.20;93.00
5154;DHT22;2595;53.584;10.084;2023-02-28T14:17:55;10.30;90.90
5154;DHT22;2595;53.584;10.084;2023-02-28T14:20:23;10.40;90.60
5154;DHT22;2595;53.584;10.084;2023-02-28T14:28:47;10.50;87.80
5154;DHT22;2595;53.584;10.084;2023-02-28T14:31:22;10.60;90.50
5154;DHT22;2595;53.584;10.084;2023-02-28T14:36:39;10.60;81.40
5154;DHT22;2595;53.584;10.084;2023-02-28T14:39:07;10.70;82.20
5154;DHT22;2595;53.584;10.084;2023-02-28T14:41:38;10.70;81.30
5154;DHT22;2595;53.584;10.084;2023-02-28T14:44:24;10.60;78.60
5154;DHT22;2595;53.584;10.084;2023-02-28T14:46:53;10.60;76.60
5154;DHT22;2595;53.584;10.084;2023-02-28T14:49:35;10.60;82.60
5154;DHT22;2595;53.584;10.084;2023-02-28T14:52:23;10.60;79.30
5154;DHT22;2595;53.584;10.084;2023-02-28T14:55:01;10.60;81.00
5154;DHT22;2595;53.584;10.084;2023-02-28T14:57:29;10.60;78.30
5154;DHT22;2595;53.584;10.084;2023-02-28T15:02:34;10.60;80.40
5154;DHT22;2595;53.584;10.084;2023-02-28T15:07:42;10.40;82.70
5154;DHT22;2595;53.584;10.084;2023-02-28T15:10:25;10.30;83.50
5154;DHT22;2595;53.584;10.084;2023-02-28T15:13:00;10.20;88.30
5154;DHT22;2595;53.584;10.084;2023-02-28T15:15:50;10.00;87.00
5154;DHT22;2595;53.584;10.084;2023-02-28T15:21:06;9.70;89.50
5154;DHT22;2595;53.584;10.084;2023-02-28T15:23:32;9.50;89.10
5154;DHT22;2595;53.584;10.084;2023-02-28T15:26:00;9.40;91.00
5154;DHT22;2595;53.584;10.084;2023-02-28T15:28:27;9.20;91.60
5154;DHT22;2595;53.584;10.084;2023-02-28T15:30:56;9.10;91.50
5154;DHT22;2595;53.584;10.084;2023-02-28T15:33:32;9.00;92.40
5154;DHT22;2595;53.584;10.084;2023-02-28T15:36:17;9.00;92.90
5154;DHT22;2595;53.584;10.084;2023-02-28T15:38:51;8.90;93.50
5154;DHT22;2595;53.584;10.084;2023-02-28T15:41:37;8.80;95.00
5154;DHT22;2595;53.584;10.084;2023-02-28T15:46:55;8.70;94.60
5154;DHT22;2595;53.584;10.084;2023-02-28T15:49:22;8.60;94.90
5154;DHT22;2595;53.584;10.084;2023-02-28T15:51:51;8.50;96.30
5154;DHT22;2595;53.584;10.084;2023-02-28T15:54:34;8.50;96.50
5154;DHT22;2595;53.584;10.084;2023-02-28T15:57:07;8.40;96.30
5154;DHT22;2595;53.584;10.084;2023-02-28T15:59:38;8.40;95.30
5154;DHT22;2595;53.584;10.084;2023-02-28T16:02:12;8.40;95.00
5154;DHT22;2595;53.584;10.084;2023-02-28T16:07:40;8.30;96.30
5154;DHT22;2595;53.584;10.084;2023-02-28T16:10:08;8.30;96.90
5154;DHT22;2595;53.584;10.084;2023-02-28T16:12:36;8.20;96.70
5154;DHT22;2595;53.584;10.084;2023-02-28T16:15:07;8.10;97.00
5154;DHT22;2595;53.584;10.084;2023-02-28T16:17:37;8.10;97.40
5154;DHT22;2595;53.584;10.084;2023-02-28T16:20:14;8.00;97.30
5154;DHT22;2595;53.584;10.084;2023-02-28T16:22:41;8.00;97.40
5154;DHT22;2595;53.584;10.084;2023-02-28T16:25:15;7.90;97.20
5154;DHT22;2595;53.584;10.084;2023-02-28T16:27:42;7.80;97.30
5154;DHT22;2595;53.584;10.084;2023-02-28T16:30:17;7.80;97.60
5154;DHT22;2595;53.584;10.084;2023-02-28T16:32:44;7.80;98.30
5154;DHT22;2595;53.584;10.084;2023-02-28T16:35:11;7.70;98.40
5154;DHT22;2595;53.584;10.084;2023-02-28T16:37:37;7.60;98.30
5154;DHT22;2595;53.584;10.084;2023-02-28T16:40:03;7.60;98.80
5154;DHT22;2595;53.584;10.084;2023-02-28T16:42:29;7.50;98.40
5154;DHT22;2595;53.584;10.084;2023-02-28T16:44:56;7.40;98.90
5154;DHT22;2595;53.584;10.084;2023-02-28T16:47:23;7.40;98.60
5154;DHT22;2595;53.584;10.084;2023-02-28T16:49:49;7.40;98.70
5154;DHT22;2595;53.584;10.084;2023-02-28T16:52:15;7.40;99.40
5154;DHT22;2595;53.584;10.084;2023-02-28T16:54:41;7.40;99.40
5154;DHT22;2595;53.584;10.084;2023-02-28T16:57:17;7.40;99.00
5154;DHT22;2595;53.584;10.084;2023-02-28T16:59:44;7.40;99.40
5154;DHT22;2595;53.584;10.084;2023-02-28T17:02:14;7.40;99.10
5154;DHT22;2595;53.584;10.084;2023-02-28T17:04:40;7.40;99.30
5154;DHT22;2595;53.584;10.084;2023-02-28T17:07:11;7.30;99.50
5154;DHT22;2595;53.584;10.084;2023-02-28T17:09:37;7.30;99.50
5154;DHT22;2595;53.584;10.084;2023-02-28T17:12:03;7.30;99.90
5154;DHT22;2595;53.584;10.084;2023-02-28T17:14:29;7.20;99.60
5154;DHT22;2595;53.584;10.084;2023-02-28T17:16:54;7.20;99.90
5154;DHT22;2595;53.584;10.084;2023-02-28T17:19:20;7.10;99.90
5154;DHT22;2595;53.584;10.084;2023-02-28T17:21:46;7.10;99.90
5154;DHT22;2595;53.584;10.084;2023-02-28T17:24:11;7.10;99.90
5154;DHT22;2595;53.584;10.084;2023-02-28T17:26:39;7.00;99.90
5154;DHT22;2595;53.584;10.084;2023-02-28T17:29:10;7.00;99.90
5154;DHT22;2595;53.584;10.084;2023-02-28T17:31:38;6.90;99.90
5154;DHT22;2595;53.584;10.084;2023-02-28T17:34:04;6.80;99.90
5154;DHT22;2595;53.584;10.084;2023-02-28T17:36:30;6.70;99.90
5154;DHT22;2595;53.584;10.084;2023-02-28T17:38:56;6.60;99.90
5154;DHT22;2595;53.584;10.084;2023-02-28T17:41:23;6.60;99.90
5154;DHT22;2595;53.584;10.084;2023-02-28T17:43:49;6.50;99.90
5154;DHT22;2595;53.584;10.084;2023-02-28T17:46:18;6.40;99.90
5154;DHT22;2595;53.584;10.084;2023-02-28T17:48:52;6.40;99.90
5154;DHT22;2595;53.584;10.084;2023-02-28T17:51:22;6.30;99.90
5154;DHT22;2595;53.584;10.084;2023-02-28T17:53:48;6.30;99.90
5154;DHT22;2595;53.584;10.084;2023-02-28T17:56:20;6.20;99.90
5154;DHT22;2595;53.584;10.084;2023-02-28T17:58:46;6.10;99.90
5154;DHT22;2595;53.584;10.084;2023-02-28T18:01:11;6.00;99.90
5154;DHT22;2595;53.584;10.084;2023-02-28T18:03:38;6.00;99.90
5154;DHT22;2595;53.584;10.084;2023-02-28T18:06:04;5.90;99.90
5154;DHT22;2595;53.584;10.084;2023-02-28T18:08:30;5.90;99.90
5154;DHT22;2595;53.584;10.084;2023-02-28T18:10:58;5.80;99.90
5154;DHT22;2595;53.584;10.084;2023-02-28T18:13:24;5.80;99.90
5154;DHT22;2595;53.584;10.084;2023-02-28T18:15:50;5.70;99.90
5154;DHT22;2595;53.584;10.084;2023-02-28T18:18:15;5.70;99.90
5154;DHT22;2595;53.584;10.084;2023-02-28T18:20:41;5.70;99.90
5154;DHT22;2595;53.584;10.084;2023-02-28T18:23:07;5.60;99.90
5154;DHT22;2595;53.584;10.084;2023-02-28T18:25:33;5.60;99.90
5154;DHT22;2595;53.584;10.084;2023-02-28T18:27:58;5.60;99.90
5154;DHT22;2595;53.584;10.084;2023-02-28T18:30:30;5.50;99.90
5154;DHT22;2595;53.584;10.084;2023-02-28T18:32:57;5.50;99.90
5154;DHT22;2595;53.584;10.084;2023-02-28T18:35:24;5.40;99.90
5154;DHT22;2595;53.584;10.084;2023-02-28T18:38:15;5.40;99.90